SHT3H EGCC-EGLL
Flight info
| Callsign | SHT3H |
|---|---|
| Flight time | 0h 29m |
| Altitude | 19000 |
| Route | SANBA N859 HON |
| Aircraft | A320/M-SDE3FGHIRWY/LB1 |
Departure
| Time | 2026-05-07 22:28 |
|---|---|
| Airport | Manchester Airport (EGCC) |
Arrival
| Time | 2026-05-07 22:57 |
|---|---|
| Airport | London Heathrow Airport (EGLL) |
| Time | Latitude | Longitude | Altitude | Speed | Heading |
|---|---|---|---|---|---|
| 2026-05-07 22:04 | 53.36835 | -2.28881 | 218 ft | 0 kts | 134° |
| 2026-05-07 22:16 | 53.36838 | -2.28885 | 233 ft | 2 kts | 135° |
| 2026-05-07 22:16 | 53.36850 | -2.28903 | 233 ft | 2 kts | 149° |
| 2026-05-07 22:16 | 53.36865 | -2.28915 | 235 ft | 2 kts | 175° |
| 2026-05-07 22:17 | 53.36881 | -2.28912 | 235 ft | 2 kts | 211° |
| 2026-05-07 22:17 | 53.36894 | -2.28897 | 234 ft | 1 kts | 227° |
| 2026-05-07 22:17 | 53.36897 | -2.28892 | 235 ft | 0 kts | 228° |
| 2026-05-07 22:19 | 53.36894 | -2.28896 | 235 ft | 1 kts | 228° |
| 2026-05-07 22:19 | 53.36879 | -2.28924 | 237 ft | 7 kts | 226° |
| 2026-05-07 22:19 | 53.36825 | -2.29009 | 233 ft | 15 kts | 213° |
| 2026-05-07 22:19 | 53.36720 | -2.28994 | 233 ft | 18 kts | 135° |
| 2026-05-07 22:20 | 53.36683 | -2.28934 | 233 ft | 0 kts | 135° |
| 2026-05-07 22:21 | 53.36680 | -2.28930 | 233 ft | 2 kts | 135° |
| 2026-05-07 22:21 | 53.36666 | -2.28909 | 233 ft | 5 kts | 144° |
| 2026-05-07 22:21 | 53.36610 | -2.28853 | 233 ft | 14 kts | 135° |
| 2026-05-07 22:21 | 53.36555 | -2.28676 | 234 ft | 19 kts | 131° |
| 2026-05-07 22:22 | 53.36459 | -2.28509 | 233 ft | 21 kts | 135° |
| 2026-05-07 22:22 | 53.36356 | -2.28315 | 233 ft | 23 kts | 128° |
| 2026-05-07 22:22 | 53.36243 | -2.28104 | 233 ft | 25 kts | 135° |
| 2026-05-07 22:22 | 53.36113 | -2.27888 | 233 ft | 24 kts | 137° |
| 2026-05-07 22:23 | 53.35953 | -2.27835 | 233 ft | 24 kts | 189° |
| 2026-05-07 22:23 | 53.35822 | -2.27755 | 233 ft | 20 kts | 129° |
| 2026-05-07 22:23 | 53.35704 | -2.27623 | 233 ft | 22 kts | 159° |
| 2026-05-07 22:23 | 53.35619 | -2.27453 | 233 ft | 14 kts | 76° |
| 2026-05-07 22:24 | 53.35673 | -2.27342 | 233 ft | 14 kts | 50° |
| 2026-05-07 22:24 | 53.35745 | -2.27196 | 233 ft | 18 kts | 51° |
| 2026-05-07 22:24 | 53.35829 | -2.27003 | 234 ft | 22 kts | 59° |
| 2026-05-07 22:24 | 53.35925 | -2.26772 | 235 ft | 26 kts | 55° |
| 2026-05-07 22:25 | 53.36045 | -2.26518 | 234 ft | 30 kts | 50° |
| 2026-05-07 22:25 | 53.36140 | -2.26284 | 234 ft | 9 kts | 83° |
| 2026-05-07 22:25 | 53.36137 | -2.26255 | 234 ft | 2 kts | 112° |
| 2026-05-07 22:25 | 53.36124 | -2.26232 | 237 ft | 4 kts | 134° |
| 2026-05-07 22:26 | 53.36095 | -2.26192 | 238 ft | 5 kts | 141° |
| 2026-05-07 22:26 | 53.36084 | -2.26177 | 241 ft | 0 kts | 141° |
| 2026-05-07 22:26 | 53.36059 | -2.26144 | 247 ft | 9 kts | 142° |
| 2026-05-07 22:26 | 53.36009 | -2.26182 | 249 ft | 8 kts | 231° |
| 2026-05-07 22:27 | 53.35948 | -2.26309 | 251 ft | 34 kts | 231° |
| 2026-05-07 22:27 | 53.35646 | -2.26936 | 241 ft | 101 kts | 231° |
| 2026-05-07 22:27 | 53.35091 | -2.28081 | 233 ft | 150 kts | 231° |
| 2026-05-07 22:27 | 53.34423 | -2.29465 | 738 ft | 150 kts | 230° |
| 2026-05-07 22:28 | 53.33786 | -2.30847 | 1366 ft | 150 kts | 230° |
| 2026-05-07 22:28 | 53.33131 | -2.32298 | 1713 ft | 166 kts | 230° |
| 2026-05-07 22:28 | 53.32465 | -2.34044 | 1955 ft | 193 kts | 250° |
| 2026-05-07 22:28 | 53.32460 | -2.36416 | 2217 ft | 222 kts | 283° |
| 2026-05-07 22:29 | 53.32916 | -2.39041 | 2601 ft | 247 kts | 283° |
| 2026-05-07 22:29 | 53.33022 | -2.41884 | 3278 ft | 253 kts | 253° |
| 2026-05-07 22:29 | 53.32094 | -2.44337 | 4152 ft | 254 kts | 218° |
| 2026-05-07 22:29 | 53.30466 | -2.45484 | 5081 ft | 259 kts | 191° |
| 2026-05-07 22:30 | 53.28636 | -2.45747 | 6002 ft | 263 kts | 182° |
| 2026-05-07 22:30 | 53.26828 | -2.45146 | 6832 ft | 272 kts | 156° |
| 2026-05-07 22:30 | 53.25231 | -2.43463 | 7664 ft | 276 kts | 149° |
| 2026-05-07 22:30 | 53.23579 | -2.41788 | 8530 ft | 278 kts | 152° |
| 2026-05-07 22:31 | 53.21871 | -2.40231 | 9383 ft | 281 kts | 154° |
| 2026-05-07 22:31 | 53.20123 | -2.38717 | 10194 ft | 284 kts | 155° |
| 2026-05-07 22:31 | 53.18293 | -2.37161 | 10479 ft | 307 kts | 155° |
| 2026-05-07 22:31 | 53.16316 | -2.35478 | 10666 ft | 330 kts | 154° |
| 2026-05-07 22:32 | 53.14230 | -2.33685 | 11107 ft | 342 kts | 154° |
| 2026-05-07 22:32 | 53.12101 | -2.31838 | 11749 ft | 347 kts | 154° |
| 2026-05-07 22:32 | 53.09946 | -2.29956 | 12411 ft | 351 kts | 154° |
| 2026-05-07 22:32 | 53.07768 | -2.28054 | 13079 ft | 356 kts | 154° |
| 2026-05-07 22:33 | 53.05563 | -2.26130 | 13743 ft | 360 kts | 154° |
| 2026-05-07 22:33 | 53.03332 | -2.24187 | 14358 ft | 364 kts | 154° |
| 2026-05-07 22:33 | 53.01079 | -2.22235 | 14963 ft | 367 kts | 154° |
| 2026-05-07 22:33 | 52.98799 | -2.20274 | 15566 ft | 370 kts | 154° |
| 2026-05-07 22:34 | 52.96503 | -2.18306 | 16166 ft | 373 kts | 154° |
| 2026-05-07 22:34 | 52.94188 | -2.16324 | 16767 ft | 376 kts | 154° |
| 2026-05-07 22:34 | 52.91853 | -2.14316 | 17388 ft | 379 kts | 154° |
| 2026-05-07 22:34 | 52.89506 | -2.12271 | 18007 ft | 382 kts | 154° |
| 2026-05-07 22:35 | 52.87139 | -2.10205 | 18582 ft | 386 kts | 154° |
| 2026-05-07 22:35 | 52.84752 | -2.08126 | 18951 ft | 388 kts | 154° |
| 2026-05-07 22:35 | 52.82348 | -2.06039 | 19046 ft | 396 kts | 154° |
| 2026-05-07 22:35 | 52.79848 | -2.03886 | 19068 ft | 412 kts | 154° |
| 2026-05-07 22:36 | 52.77284 | -2.01689 | 19066 ft | 416 kts | 154° |
| 2026-05-07 22:36 | 52.74732 | -1.99503 | 19068 ft | 422 kts | 154° |
| 2026-05-07 22:36 | 52.72074 | -1.97227 | 19065 ft | 437 kts | 154° |
| 2026-05-07 22:36 | 52.69331 | -1.94886 | 19066 ft | 446 kts | 154° |
| 2026-05-07 22:37 | 52.66565 | -1.92528 | 19070 ft | 448 kts | 154° |
| 2026-05-07 22:37 | 52.63791 | -1.90165 | 19076 ft | 448 kts | 154° |
| 2026-05-07 22:37 | 52.61015 | -1.87803 | 19080 ft | 448 kts | 154° |
| 2026-05-07 22:37 | 52.58243 | -1.85443 | 19082 ft | 448 kts | 154° |
| 2026-05-07 22:38 | 52.55471 | -1.83087 | 19083 ft | 448 kts | 154° |
| 2026-05-07 22:38 | 52.52696 | -1.80732 | 19083 ft | 448 kts | 154° |
| 2026-05-07 22:38 | 52.49927 | -1.78387 | 19085 ft | 448 kts | 154° |
| 2026-05-07 22:38 | 52.47153 | -1.76046 | 19082 ft | 448 kts | 154° |
| 2026-05-07 22:39 | 52.44371 | -1.73702 | 19080 ft | 448 kts | 154° |
| 2026-05-07 22:39 | 52.41596 | -1.71364 | 19076 ft | 448 kts | 154° |
| 2026-05-07 22:39 | 52.38825 | -1.69034 | 19071 ft | 448 kts | 154° |
| 2026-05-07 22:39 | 52.36093 | -1.66583 | 19067 ft | 449 kts | 148° |
| 2026-05-07 22:40 | 52.33621 | -1.63476 | 19063 ft | 450 kts | 140° |
| 2026-05-07 22:40 | 52.32059 | -1.61252 | 19063 ft | 450 kts | 140° |
| 2026-05-07 22:40 | 52.29688 | -1.57896 | 19080 ft | 450 kts | 140° |
| 2026-05-07 22:40 | 52.26542 | -1.53468 | 19087 ft | 450 kts | 140° |
| 2026-05-07 22:41 | 52.24165 | -1.50142 | 19089 ft | 450 kts | 140° |
| 2026-05-07 22:41 | 52.22561 | -1.47901 | 19088 ft | 450 kts | 140° |
| 2026-05-07 22:41 | 52.20181 | -1.44572 | 19089 ft | 450 kts | 140° |
| 2026-05-07 22:41 | 52.17831 | -1.41286 | 19090 ft | 450 kts | 140° |
| 2026-05-07 22:42 | 52.15455 | -1.37964 | 19090 ft | 450 kts | 140° |
| 2026-05-07 22:42 | 52.13073 | -1.34636 | 19090 ft | 450 kts | 140° |
| 2026-05-07 22:42 | 52.10692 | -1.31315 | 19088 ft | 450 kts | 140° |
| 2026-05-07 22:42 | 52.08312 | -1.28004 | 19028 ft | 451 kts | 140° |
| 2026-05-07 22:43 | 52.05943 | -1.24717 | 18662 ft | 438 kts | 140° |
| 2026-05-07 22:43 | 52.03667 | -1.21560 | 18294 ft | 423 kts | 141° |
| 2026-05-07 22:43 | 52.01454 | -1.18495 | 17865 ft | 412 kts | 141° |
| 2026-05-07 22:43 | 51.99294 | -1.15510 | 17451 ft | 403 kts | 141° |
| 2026-05-07 22:44 | 51.97176 | -1.12589 | 17060 ft | 396 kts | 141° |
| 2026-05-07 22:44 | 51.95097 | -1.09731 | 16664 ft | 388 kts | 141° |
| 2026-05-07 22:44 | 51.93051 | -1.06921 | 16265 ft | 380 kts | 140° |
| 2026-05-07 22:44 | 51.91057 | -1.04177 | 15890 ft | 372 kts | 140° |
| 2026-05-07 22:45 | 51.89123 | -1.01512 | 15516 ft | 365 kts | 140° |
| 2026-05-07 22:45 | 51.87206 | -0.98873 | 15139 ft | 359 kts | 140° |
| 2026-05-07 22:45 | 51.85418 | -0.96099 | 14770 ft | 354 kts | 128° |
| 2026-05-07 22:45 | 51.84195 | -0.92684 | 14408 ft | 349 kts | 116° |
| 2026-05-07 22:46 | 51.83129 | -0.89196 | 14048 ft | 344 kts | 116° |
| 2026-05-07 22:46 | 51.82078 | -0.85747 | 13668 ft | 340 kts | 116° |
| 2026-05-07 22:46 | 51.81038 | -0.82340 | 13256 ft | 336 kts | 116° |
| 2026-05-07 22:46 | 51.80006 | -0.78970 | 12854 ft | 332 kts | 116° |
| 2026-05-07 22:47 | 51.78985 | -0.75640 | 12458 ft | 329 kts | 116° |
| 2026-05-07 22:47 | 51.77973 | -0.72340 | 12062 ft | 326 kts | 116° |
| 2026-05-07 22:47 | 51.76968 | -0.69073 | 11683 ft | 324 kts | 116° |
| 2026-05-07 22:47 | 51.75966 | -0.65832 | 11305 ft | 321 kts | 116° |
| 2026-05-07 22:48 | 51.74971 | -0.62615 | 10922 ft | 319 kts | 116° |
| 2026-05-07 22:48 | 51.73982 | -0.59419 | 10558 ft | 317 kts | 117° |
| 2026-05-07 22:48 | 51.72694 | -0.56590 | 10192 ft | 314 kts | 141° |
| 2026-05-07 22:48 | 51.70776 | -0.55011 | 9810 ft | 310 kts | 169° |
| 2026-05-07 22:49 | 51.68675 | -0.54707 | 9418 ft | 307 kts | 179° |
| 2026-05-07 22:49 | 51.66546 | -0.54581 | 9016 ft | 305 kts | 179° |
| 2026-05-07 22:49 | 51.64429 | -0.54484 | 8627 ft | 304 kts | 181° |
| 2026-05-07 22:49 | 51.62352 | -0.55196 | 8223 ft | 309 kts | 209° |
| 2026-05-07 22:50 | 51.60785 | -0.57475 | 7840 ft | 306 kts | 239° |
| 2026-05-07 22:50 | 51.60126 | -0.60690 | 7329 ft | 307 kts | 263° |
| 2026-05-07 22:50 | 51.59914 | -0.64097 | 7073 ft | 304 kts | 265° |
| 2026-05-07 22:50 | 51.59744 | -0.67503 | 6840 ft | 307 kts | 265° |
| 2026-05-07 22:51 | 51.59568 | -0.70897 | 6506 ft | 303 kts | 265° |
| 2026-05-07 22:51 | 51.59381 | -0.74277 | 6090 ft | 302 kts | 264° |
| 2026-05-07 22:51 | 51.58855 | -0.77469 | 5696 ft | 299 kts | 240° |
| 2026-05-07 22:51 | 51.57413 | -0.79812 | 5251 ft | 298 kts | 208° |
| 2026-05-07 22:52 | 51.55447 | -0.80760 | 4870 ft | 296 kts | 187° |
| 2026-05-07 22:52 | 51.53397 | -0.80712 | 4302 ft | 298 kts | 171° |
| 2026-05-07 22:52 | 51.51427 | -0.79662 | 3892 ft | 297 kts | 151° |
| 2026-05-07 22:52 | 51.49786 | -0.77772 | 3707 ft | 287 kts | 135° |
| 2026-05-07 22:53 | 51.48575 | -0.75295 | 3450 ft | 279 kts | 118° |
| 2026-05-07 22:53 | 51.47856 | -0.72477 | 3139 ft | 266 kts | 103° |
| 2026-05-07 22:53 | 51.47640 | -0.69620 | 2805 ft | 252 kts | 88° |
| 2026-05-07 22:53 | 51.47683 | -0.66888 | 2475 ft | 239 kts | 89° |
| 2026-05-07 22:54 | 51.47681 | -0.64295 | 2154 ft | 223 kts | 89° |
| 2026-05-07 22:54 | 51.47686 | -0.61957 | 1862 ft | 203 kts | 89° |
| 2026-05-07 22:54 | 51.47692 | -0.60474 | 1706 ft | 190 kts | 88° |
| 2026-05-07 22:54 | 51.47696 | -0.59775 | 1629 ft | 186 kts | 89° |
| 2026-05-07 22:55 | 51.47706 | -0.57758 | 1344 ft | 176 kts | 88° |
| 2026-05-07 22:55 | 51.47715 | -0.55842 | 1087 ft | 167 kts | 88° |
| 2026-05-07 22:55 | 51.47724 | -0.54071 | 851 ft | 150 kts | 90° |
| 2026-05-07 22:55 | 51.47732 | -0.52465 | 619 ft | 140 kts | 91° |
| 2026-05-07 22:56 | 51.47742 | -0.50923 | 434 ft | 137 kts | 91° |
| 2026-05-07 22:56 | 51.47749 | -0.49404 | 247 ft | 136 kts | 91° |
| 2026-05-07 22:56 | 51.47752 | -0.47896 | 89 ft | 129 kts | 90° |
| 2026-05-07 22:56 | 51.47753 | -0.46727 | 89 ft | 80 kts | 89° |
| 2026-05-07 22:57 | 51.47749 | -0.46212 | 88 ft | 20 kts | 115° |
| 2026-05-07 22:57 | 51.47639 | -0.46077 | 87 ft | 17 kts | 149° |
| 2026-05-07 22:57 | 51.47594 | -0.46138 | 87 ft | 9 kts | 272° |
| 2026-05-07 22:57 | 51.47592 | -0.46363 | 87 ft | 24 kts | 269° |
| 2026-05-07 22:58 | 51.47590 | -0.46646 | 87 ft | 27 kts | 270° |
| 2026-05-07 22:58 | 51.47584 | -0.46958 | 89 ft | 29 kts | 267° |
| 2026-05-07 22:58 | 51.47582 | -0.47295 | 89 ft | 31 kts | 269° |
| 2026-05-07 22:58 | 51.47579 | -0.47650 | 89 ft | 33 kts | 269° |
| 2026-05-07 22:59 | 51.47576 | -0.48038 | 87 ft | 35 kts | 270° |
| 2026-05-07 22:59 | 51.47576 | -0.48428 | 87 ft | 33 kts | 270° |
| 2026-05-07 22:59 | 51.47575 | -0.48772 | 87 ft | 30 kts | 269° |
| 2026-05-07 22:59 | 51.47548 | -0.48958 | 87 ft | 14 kts | 201° |
| 2026-05-07 23:00 | 51.47444 | -0.48956 | 89 ft | 14 kts | 179° |
| 2026-05-07 23:00 | 51.47417 | -0.48956 | 89 ft | 0 kts | 179° |